createdAt,value
2022-12-28T00:01:21.487Z,99.90
2022-12-28T00:03:49.229Z,99.90
2022-12-28T00:06:17.176Z,99.90
2022-12-28T00:08:44.383Z,99.90
2022-12-28T00:11:20.326Z,99.90
2022-12-28T00:13:54.061Z,99.90
2022-12-28T00:16:24.998Z,99.90
2022-12-28T00:18:52.278Z,99.90
2022-12-28T00:21:19.540Z,99.90
2022-12-28T00:23:53.667Z,99.90
2022-12-28T00:26:25.315Z,99.90
2022-12-28T00:28:55.572Z,99.90
2022-12-28T00:31:27.434Z,99.90
2022-12-28T00:33:56.245Z,99.90
2022-12-28T00:36:23.443Z,99.90
2022-12-28T00:38:50.716Z,99.90
2022-12-28T00:41:17.912Z,99.90
2022-12-28T00:43:46.193Z,99.90
2022-12-28T00:46:13.569Z,99.90
2022-12-28T00:48:40.875Z,99.90
2022-12-28T00:51:09.318Z,99.90
2022-12-28T00:53:36.498Z,99.90
2022-12-28T00:56:08.087Z,99.90
2022-12-28T00:58:35.947Z,99.90
2022-12-28T01:01:04.090Z,99.90
2022-12-28T01:03:31.605Z,99.90
2022-12-28T01:05:58.877Z,99.90
2022-12-28T01:08:26.181Z,99.90
2022-12-28T01:10:53.302Z,99.90
2022-12-28T01:13:20.551Z,99.90
2022-12-28T01:15:47.801Z,99.90
2022-12-28T01:18:15.661Z,99.90
2022-12-28T01:20:43.082Z,99.90
2022-12-28T01:23:10.283Z,99.90
2022-12-28T01:25:38.488Z,99.90
2022-12-28T01:28:05.965Z,99.90
2022-12-28T01:30:33.238Z,99.90
2022-12-28T01:33:06.172Z,99.90
2022-12-28T01:35:33.421Z,99.90
2022-12-28T01:38:00.823Z,99.90
2022-12-28T01:40:28.024Z,99.90
2022-12-28T01:42:56.288Z,99.90
2022-12-28T01:45:23.659Z,99.90
2022-12-28T01:47:53.235Z,99.90
2022-12-28T01:50:24.983Z,99.90
2022-12-28T01:52:57.269Z,99.90
2022-12-28T01:55:27.397Z,99.90
2022-12-28T01:57:54.578Z,99.90
2022-12-28T02:00:22.579Z,99.90
2022-12-28T02:02:55.109Z,99.90
2022-12-28T02:05:24.087Z,99.90
2022-12-28T02:08:10.131Z,99.90
2022-12-28T02:10:40.905Z,99.90
2022-12-28T02:13:13.403Z,99.90
2022-12-28T02:15:40.838Z,99.90
2022-12-28T02:18:08.699Z,99.90
2022-12-28T02:20:44.521Z,99.90
2022-12-28T02:23:23.801Z,99.90
2022-12-28T02:25:50.993Z,99.90
2022-12-28T02:28:36.736Z,99.90
2022-12-28T02:31:12.093Z,99.90
2022-12-28T02:33:45.585Z,99.90
2022-12-28T02:36:19.303Z,99.90
2022-12-28T02:38:46.523Z,99.90
2022-12-28T02:41:15.449Z,99.90
2022-12-28T02:43:42.689Z,99.90
2022-12-28T02:46:28.533Z,99.90
2022-12-28T02:49:34.299Z,99.90
2022-12-28T02:52:01.540Z,99.90
2022-12-28T02:54:51.050Z,99.90
2022-12-28T02:57:35.686Z,99.90
2022-12-28T03:00:07.018Z,99.90
2022-12-28T03:02:38.144Z,99.90
2022-12-28T03:05:08.995Z,99.90
2022-12-28T03:08:17.222Z,99.90
2022-12-28T03:10:44.417Z,99.90
2022-12-28T03:13:42.856Z,99.90
2022-12-28T03:16:18.470Z,99.90
2022-12-28T03:19:05.620Z,99.90
2022-12-28T03:21:52.304Z,99.90
2022-12-28T03:24:39.177Z,99.90
2022-12-28T03:27:28.234Z,99.90
2022-12-28T03:30:25.017Z,99.90
2022-12-28T03:32:52.344Z,99.90
2022-12-28T03:35:22.690Z,99.90
2022-12-28T03:37:56.641Z,99.90
2022-12-28T03:40:23.889Z,99.90
2022-12-28T03:43:10.299Z,99.90
2022-12-28T03:45:45.469Z,99.90
2022-12-28T03:48:16.591Z,99.90
2022-12-28T03:50:46.384Z,99.90
2022-12-28T03:53:21.031Z,99.90
2022-12-28T03:55:50.039Z,99.90
2022-12-28T03:58:20.491Z,99.90
2022-12-28T04:00:47.700Z,99.90
2022-12-28T04:03:15.344Z,99.90
2022-12-28T04:05:43.236Z,99.90
2022-12-28T04:08:10.813Z,99.90
2022-12-28T04:10:38.042Z,99.90
2022-12-28T04:13:05.307Z,99.90
2022-12-28T04:15:41.851Z,99.90
2022-12-28T04:18:10.151Z,99.90
2022-12-28T04:20:38.813Z,99.90
2022-12-28T04:23:06.247Z,99.90
2022-12-28T04:25:33.476Z,99.90
2022-12-28T04:28:00.926Z,99.90
2022-12-28T04:31:05.952Z,99.90
2022-12-28T04:33:35.536Z,99.90
2022-12-28T04:36:09.109Z,99.90
2022-12-28T04:38:36.893Z,99.90
2022-12-28T04:41:04.979Z,99.90
2022-12-28T04:43:32.402Z,99.90
2022-12-28T04:46:00.650Z,99.90
2022-12-28T04:48:28.192Z,99.90
2022-12-28T04:50:55.872Z,99.90
2022-12-28T04:53:23.105Z,99.90
2022-12-28T04:55:50.475Z,99.90
2022-12-28T04:58:17.783Z,99.90
2022-12-28T05:00:45.151Z,99.90
2022-12-28T05:03:12.489Z,99.90
2022-12-28T05:05:40.174Z,99.90
2022-12-28T05:08:07.413Z,99.90
2022-12-28T05:10:34.687Z,99.90
2022-12-28T05:13:01.876Z,99.90
2022-12-28T05:15:29.013Z,99.90
2022-12-28T05:17:56.369Z,99.90
2022-12-28T05:20:23.686Z,99.90
2022-12-28T05:22:50.955Z,99.90
2022-12-28T05:25:18.297Z,99.90
2022-12-28T05:27:45.540Z,99.90
2022-12-28T05:30:12.893Z,99.90
2022-12-28T05:32:40.158Z,99.90
2022-12-28T05:35:07.729Z,99.90
2022-12-28T05:37:35.096Z,99.90
2022-12-28T05:40:02.540Z,99.90
2022-12-28T05:42:29.800Z,99.90
2022-12-28T05:44:57.023Z,99.90
2022-12-28T05:47:24.271Z,99.90
2022-12-28T05:49:51.565Z,99.90
2022-12-28T05:52:18.794Z,99.90
2022-12-28T05:54:45.983Z,99.90
2022-12-28T05:57:13.301Z,99.90
2022-12-28T05:59:40.504Z,99.90
2022-12-28T06:02:07.737Z,99.90
2022-12-28T06:04:35.083Z,99.90
2022-12-28T06:07:02.231Z,99.90
2022-12-28T06:09:29.501Z,99.90
2022-12-28T06:11:56.700Z,99.90
2022-12-28T06:14:23.959Z,99.90
2022-12-28T06:16:51.688Z,99.90
2022-12-28T06:19:18.955Z,99.90
2022-12-28T06:21:46.259Z,99.90
2022-12-28T06:24:14.209Z,99.90
2022-12-28T06:26:41.776Z,99.90
2022-12-28T06:29:09.275Z,99.90
2022-12-28T06:31:38.071Z,99.90
2022-12-28T06:34:06.510Z,99.90
2022-12-28T06:36:37.757Z,99.90
2022-12-28T06:39:06.163Z,99.90
2022-12-28T06:41:34.023Z,99.90
2022-12-28T06:44:01.472Z,99.90
2022-12-28T06:46:29.904Z,99.90
2022-12-28T06:48:57.309Z,99.90
2022-12-28T06:51:30.737Z,99.90
2022-12-28T06:53:57.976Z,99.90
2022-12-28T06:56:29.499Z,99.90
2022-12-28T06:59:02.520Z,99.90
2022-12-28T07:01:32.305Z,99.90
2022-12-28T07:04:00.270Z,99.90
2022-12-28T07:06:28.172Z,99.90
2022-12-28T07:09:03.627Z,99.90
2022-12-28T07:11:31.052Z,99.90
2022-12-28T07:13:58.272Z,99.90
2022-12-28T07:16:26.361Z,99.90
2022-12-28T07:18:53.649Z,99.90
2022-12-28T07:21:22.657Z,99.90
2022-12-28T07:23:50.454Z,99.90
2022-12-28T07:26:20.556Z,99.90
2022-12-28T07:28:49.082Z,99.90
2022-12-28T07:31:17.756Z,99.90
2022-12-28T07:33:45.985Z,99.90
2022-12-28T07:36:14.748Z,99.90
2022-12-28T07:38:42.005Z,99.90
2022-12-28T07:41:13.705Z,99.90
2022-12-28T07:43:41.025Z,99.90
2022-12-28T07:46:10.221Z,99.90
2022-12-28T07:48:38.030Z,99.90
2022-12-28T07:51:11.223Z,99.90
2022-12-28T07:53:39.036Z,99.90
2022-12-28T07:56:06.719Z,99.90
2022-12-28T07:58:34.238Z,99.90
2022-12-28T08:01:08.647Z,99.90
2022-12-28T08:03:36.133Z,99.90
2022-12-28T08:06:07.347Z,99.90
2022-12-28T08:08:38.716Z,99.90
2022-12-28T08:11:06.897Z,99.90
2022-12-28T08:13:35.292Z,99.90
2022-12-28T08:16:02.992Z,99.90
2022-12-28T08:18:30.774Z,99.90
2022-12-28T08:21:05.910Z,99.90
2022-12-28T08:23:33.412Z,99.90
2022-12-28T08:26:06.845Z,99.90
2022-12-28T08:28:34.200Z,99.90
2022-12-28T08:31:05.003Z,99.90
2022-12-28T08:33:32.278Z,99.90
2022-12-28T08:35:59.558Z,99.90
2022-12-28T08:38:26.776Z,99.90
2022-12-28T08:40:57.874Z,99.90
2022-12-28T08:43:27.088Z,99.90
2022-12-28T08:46:02.039Z,99.90
2022-12-28T08:48:29.966Z,99.90
2022-12-28T08:51:01.088Z,99.90
2022-12-28T08:53:28.574Z,99.90
2022-12-28T08:55:56.677Z,99.90
2022-12-28T08:58:26.276Z,99.90
2022-12-28T09:00:53.556Z,99.90
2022-12-28T09:03:20.828Z,99.90
2022-12-28T09:05:52.708Z,99.90
2022-12-28T09:08:21.696Z,99.90
2022-12-28T09:10:48.904Z,99.90
2022-12-28T09:13:16.034Z,99.90
2022-12-28T09:15:43.550Z,99.90
2022-12-28T09:18:10.909Z,99.90
2022-12-28T09:20:41.935Z,99.90
2022-12-28T09:23:11.706Z,99.90
2022-12-28T09:25:38.971Z,99.90
2022-12-28T09:28:06.196Z,99.90
2022-12-28T09:30:33.459Z,99.90
2022-12-28T09:33:19.483Z,99.90
2022-12-28T09:35:46.704Z,99.90
2022-12-28T09:38:13.911Z,99.90
2022-12-28T09:40:41.282Z,99.90
2022-12-28T09:43:11.548Z,99.90
2022-12-28T09:45:39.247Z,99.90
2022-12-28T09:48:08.393Z,99.90
2022-12-28T09:50:35.661Z,99.90
2022-12-28T09:53:15.405Z,99.90
2022-12-28T09:55:48.908Z,99.90
2022-12-28T09:58:16.662Z,99.90
2022-12-28T10:00:46.106Z,99.90
2022-12-28T10:03:13.459Z,99.90
2022-12-28T10:05:40.776Z,99.90
2022-12-28T10:08:10.966Z,99.90
2022-12-28T10:10:41.999Z,99.90
2022-12-28T10:13:45.456Z,99.90
2022-12-28T10:16:04.309Z,99.90
2022-12-28T10:18:37.561Z,99.90
2022-12-28T10:21:06.606Z,99.90
2022-12-28T10:23:41.240Z,99.90
2022-12-28T10:26:18.737Z,99.90
2022-12-28T10:28:58.525Z,99.90
2022-12-28T10:31:36.737Z,99.90
2022-12-28T10:34:17.954Z,99.90
2022-12-28T10:36:45.256Z,99.90
2022-12-28T10:39:17.570Z,99.90
2022-12-28T10:41:45.749Z,99.90
2022-12-28T10:44:38.848Z,99.90
2022-12-28T10:47:15.691Z,99.90
2022-12-28T10:50:10.124Z,99.90
2022-12-28T10:52:35.260Z,99.90
2022-12-28T10:55:08.132Z,99.90
2022-12-28T10:57:38.123Z,99.90
2022-12-28T11:00:22.245Z,99.90
2022-12-28T11:02:49.667Z,99.90
2022-12-28T11:05:20.117Z,99.90
2022-12-28T11:07:48.055Z,99.90
2022-12-28T11:10:30.200Z,99.90
2022-12-28T11:12:58.427Z,99.90
2022-12-28T11:15:28.043Z,99.90
2022-12-28T11:17:57.007Z,99.90
2022-12-28T11:20:26.801Z,99.90
2022-12-28T11:22:54.700Z,99.90
2022-12-28T11:25:25.243Z,99.90
2022-12-28T11:27:52.599Z,99.90
2022-12-28T11:30:20.058Z,99.90
2022-12-28T11:32:50.181Z,99.90
2022-12-28T11:35:19.615Z,99.90
2022-12-28T11:37:54.688Z,99.90
2022-12-28T11:40:41.428Z,99.90
2022-12-28T11:43:35.395Z,99.90
2022-12-28T11:46:03.385Z,99.90
2022-12-28T11:48:40.405Z,99.90
2022-12-28T11:51:18.683Z,99.90
2022-12-28T11:53:45.900Z,99.90
2022-12-28T11:56:17.391Z,99.90
2022-12-28T11:58:46.127Z,99.90
2022-12-28T12:01:29.406Z,99.90
2022-12-28T12:03:56.743Z,99.90
2022-12-28T12:06:45.807Z,99.90
2022-12-28T12:09:22.000Z,99.90
2022-12-28T12:11:50.391Z,99.90
2022-12-28T12:14:21.818Z,99.90
2022-12-28T12:16:50.841Z,99.90
2022-12-28T12:19:20.826Z,99.90
2022-12-28T12:21:54.519Z,99.90
2022-12-28T12:24:26.983Z,99.90
2022-12-28T12:26:58.649Z,99.90
2022-12-28T12:29:46.235Z,99.90
2022-12-28T12:32:24.995Z,99.90
2022-12-28T12:34:55.009Z,99.90
2022-12-28T12:37:41.189Z,99.90
2022-12-28T12:40:26.391Z,99.90
2022-12-28T12:43:12.169Z,99.90
2022-12-28T12:45:54.567Z,99.90
2022-12-28T12:48:27.946Z,99.90
2022-12-28T12:51:18.429Z,99.90
2022-12-28T12:53:49.031Z,99.90
2022-12-28T12:56:29.552Z,99.90
2022-12-28T12:59:15.630Z,99.90
2022-12-28T13:01:49.792Z,99.90
2022-12-28T13:04:27.524Z,99.90
2022-12-28T13:06:57.337Z,99.90
2022-12-28T13:09:25.910Z,99.20
2022-12-28T13:11:53.820Z,99.30
2022-12-28T13:14:21.958Z,99.00
2022-12-28T13:16:53.480Z,99.50
2022-12-28T13:19:23.309Z,99.90
2022-12-28T13:21:50.873Z,99.70
2022-12-28T13:24:22.415Z,99.40
2022-12-28T13:26:50.185Z,99.50
2022-12-28T13:29:19.140Z,98.40
2022-12-28T13:31:49.883Z,98.10
2022-12-28T13:34:17.161Z,98.30
2022-12-28T13:36:48.366Z,97.90
2022-12-28T13:39:16.039Z,98.10
2022-12-28T13:41:51.148Z,97.90
2022-12-28T13:44:25.109Z,97.60
2022-12-28T13:46:56.522Z,97.60
2022-12-28T13:49:25.434Z,97.70
2022-12-28T13:51:53.639Z,98.30
2022-12-28T13:54:22.851Z,98.10
2022-12-28T13:56:50.190Z,98.40
2022-12-28T13:59:18.654Z,98.70
2022-12-28T14:01:47.292Z,98.20
2022-12-28T14:07:03.510Z,97.80
2022-12-28T14:09:30.937Z,97.60
2022-12-28T14:11:58.272Z,97.60
2022-12-28T14:14:25.628Z,98.20
2022-12-28T14:16:53.030Z,98.20
2022-12-28T14:19:20.403Z,98.40
2022-12-28T14:21:48.276Z,99.10
2022-12-28T14:24:16.360Z,99.10
2022-12-28T14:26:49.769Z,99.00
2022-12-28T14:29:23.901Z,99.20
2022-12-28T14:31:55.161Z,99.50
2022-12-28T14:34:24.229Z,99.90
2022-12-28T14:36:52.765Z,99.90
2022-12-28T14:39:25.927Z,99.90
2022-12-28T14:41:53.438Z,99.90
2022-12-28T14:44:25.275Z,99.90
2022-12-28T14:46:54.913Z,99.90
2022-12-28T14:49:28.015Z,99.90
2022-12-28T14:51:55.228Z,99.90
2022-12-28T14:54:24.193Z,99.90
2022-12-28T14:56:57.960Z,99.90
2022-12-28T14:59:27.523Z,99.90
2022-12-28T15:01:54.970Z,99.90
2022-12-28T15:04:49.940Z,99.90
2022-12-28T15:07:17.212Z,99.90
2022-12-28T15:09:45.781Z,99.90
2022-12-28T15:12:17.830Z,99.90
2022-12-28T15:14:45.339Z,99.90
2022-12-28T15:17:13.019Z,99.90
2022-12-28T15:19:41.621Z,99.90
2022-12-28T15:22:09.047Z,99.90
2022-12-28T15:24:36.505Z,99.90
2022-12-28T15:27:03.807Z,99.90
2022-12-28T15:30:03.878Z,99.90
2022-12-28T15:32:18.884Z,99.90
2022-12-28T15:34:46.154Z,99.90
2022-12-28T15:37:13.331Z,99.90
2022-12-28T15:39:40.628Z,99.90
2022-12-28T15:42:07.962Z,99.90
2022-12-28T15:44:35.221Z,99.90
2022-12-28T15:47:02.589Z,99.90
2022-12-28T15:49:29.889Z,99.90
2022-12-28T15:51:57.167Z,99.90
2022-12-28T15:54:24.453Z,99.90
2022-12-28T15:56:52.962Z,99.90
2022-12-28T15:59:20.243Z,99.90
2022-12-28T16:01:48.332Z,99.90
2022-12-28T16:04:16.142Z,99.90
2022-12-28T16:06:44.965Z,99.90
2022-12-28T16:09:13.268Z,99.90
2022-12-28T16:11:40.911Z,99.90
2022-12-28T16:14:11.676Z,99.90
2022-12-28T16:16:39.334Z,99.90
2022-12-28T16:19:07.121Z,99.90
2022-12-28T16:21:35.020Z,99.90
2022-12-28T16:24:02.315Z,99.90
2022-12-28T16:26:29.823Z,99.90
2022-12-28T16:28:59.089Z,99.90
2022-12-28T16:31:27.789Z,99.90
2022-12-28T16:33:55.648Z,99.90
2022-12-28T16:36:23.214Z,99.90
2022-12-28T16:38:50.510Z,99.90
2022-12-28T16:41:20.637Z,99.90
2022-12-28T16:43:48.619Z,99.90
2022-12-28T16:46:16.167Z,99.90
2022-12-28T16:48:43.477Z,99.90
2022-12-28T16:51:11.671Z,99.90
2022-12-28T16:53:38.896Z,99.90
2022-12-28T16:56:06.928Z,99.90
2022-12-28T16:58:34.287Z,99.90
2022-12-28T17:01:07.315Z,99.90
2022-12-28T17:03:35.310Z,99.90
2022-12-28T17:06:02.945Z,99.90
2022-12-28T17:08:30.528Z,99.90
2022-12-28T17:10:57.741Z,99.90
2022-12-28T17:13:24.886Z,99.90
2022-12-28T17:15:53.419Z,99.90
2022-12-28T17:18:20.673Z,99.90
2022-12-28T17:20:48.130Z,99.90
2022-12-28T17:23:15.358Z,99.90
2022-12-28T17:25:43.204Z,99.90
2022-12-28T17:28:10.550Z,99.90
2022-12-28T17:30:37.793Z,99.90
2022-12-28T17:33:05.091Z,99.90
2022-12-28T17:35:32.291Z,99.90
2022-12-28T17:37:59.804Z,99.90
2022-12-28T17:40:27.101Z,99.90
2022-12-28T17:42:54.444Z,99.90
2022-12-28T17:45:21.694Z,99.90
2022-12-28T17:47:48.908Z,99.90
2022-12-28T17:50:18.084Z,99.90
2022-12-28T17:52:45.986Z,99.90
2022-12-28T17:55:13.272Z,99.90
2022-12-28T17:57:40.553Z,99.90
2022-12-28T18:00:08.164Z,99.90
2022-12-28T18:02:39.790Z,99.90
2022-12-28T18:05:07.409Z,99.90
2022-12-28T18:07:34.721Z,99.90
2022-12-28T18:10:02.032Z,99.90
2022-12-28T18:12:29.264Z,99.90
2022-12-28T18:14:56.542Z,99.90
2022-12-28T18:17:23.781Z,99.90
2022-12-28T18:19:53.509Z,99.90
2022-12-28T18:22:23.035Z,99.90
2022-12-28T18:24:50.748Z,99.90
2022-12-28T18:27:18.128Z,99.90
2022-12-28T18:29:45.556Z,99.90
2022-12-28T18:32:12.799Z,99.90
2022-12-28T18:34:40.072Z,99.90
2022-12-28T18:37:07.365Z,99.90
2022-12-28T18:39:34.691Z,99.90
2022-12-28T18:42:02.598Z,99.90
2022-12-28T18:44:29.863Z,99.90
2022-12-28T18:46:57.177Z,99.90
2022-12-28T18:49:24.775Z,99.90
2022-12-28T18:51:52.063Z,99.90
2022-12-28T18:54:19.403Z,99.90
2022-12-28T18:56:46.649Z,99.90
2022-12-28T18:59:13.837Z,99.90
2022-12-28T19:02:06.225Z,99.90
2022-12-28T19:04:30.055Z,99.90
2022-12-28T19:06:57.504Z,99.90
2022-12-28T19:09:24.911Z,99.90
2022-12-28T19:11:53.036Z,99.90
2022-12-28T19:14:20.346Z,99.90
2022-12-28T19:16:47.618Z,99.90
2022-12-28T19:19:17.039Z,99.90
2022-12-28T19:21:44.679Z,99.90
2022-12-28T19:24:11.899Z,99.90
2022-12-28T19:26:39.310Z,99.90
2022-12-28T19:29:07.100Z,99.90
2022-12-28T19:31:34.749Z,99.90
2022-12-28T19:34:02.221Z,99.90
2022-12-28T19:36:29.576Z,99.90
2022-12-28T19:38:57.299Z,99.90
2022-12-28T19:41:24.839Z,99.90
2022-12-28T19:43:52.087Z,99.90
2022-12-28T19:46:20.710Z,99.90
2022-12-28T19:48:48.021Z,99.90
2022-12-28T19:51:15.308Z,99.90
2022-12-28T19:53:42.627Z,99.90
2022-12-28T19:56:13.983Z,99.90
2022-12-28T19:58:43.639Z,99.90
2022-12-28T20:01:18.006Z,99.90
2022-12-28T20:03:45.667Z,99.90
2022-12-28T20:06:14.504Z,99.90
2022-12-28T20:08:45.527Z,99.90
2022-12-28T20:11:12.850Z,99.90
2022-12-28T20:13:41.480Z,99.90
2022-12-28T20:16:09.247Z,99.90
2022-12-28T20:18:36.553Z,99.90
2022-12-28T20:21:21.531Z,99.90
2022-12-28T20:23:49.787Z,99.90
2022-12-28T20:26:17.877Z,99.90
2022-12-28T20:28:45.682Z,99.90
2022-12-28T20:31:13.879Z,99.90
2022-12-28T20:33:41.600Z,99.90
2022-12-28T20:36:13.322Z,99.90
2022-12-28T20:38:40.717Z,99.90
2022-12-28T20:41:07.912Z,99.90
2022-12-28T20:43:35.805Z,99.90
2022-12-28T20:46:03.246Z,99.90
2022-12-28T20:48:30.503Z,99.90
2022-12-28T20:51:01.268Z,99.90
2022-12-28T20:53:28.565Z,99.90
2022-12-28T20:56:05.311Z,99.90
2022-12-28T20:58:32.524Z,99.90
2022-12-28T21:01:03.812Z,99.90
2022-12-28T21:03:31.220Z,99.90
2022-12-28T21:05:58.415Z,99.90
2022-12-28T21:08:30.658Z,99.90
2022-12-28T21:10:58.654Z,99.90
2022-12-28T21:13:26.184Z,99.90
2022-12-28T21:15:53.537Z,99.90
2022-12-28T21:18:20.975Z,99.90
2022-12-28T21:20:49.405Z,99.90
2022-12-28T21:23:16.770Z,99.90
2022-12-28T21:25:44.016Z,99.90
2022-12-28T21:28:11.741Z,99.90
2022-12-28T21:30:39.010Z,99.90
2022-12-28T21:33:06.264Z,99.90
2022-12-28T21:35:34.763Z,99.90
2022-12-28T21:38:02.253Z,99.90
2022-12-28T21:40:29.420Z,99.90
2022-12-28T21:42:56.662Z,99.90
2022-12-28T21:45:23.960Z,99.90
2022-12-28T21:47:51.229Z,99.90
2022-12-28T21:50:18.489Z,99.90
2022-12-28T21:52:45.765Z,99.90
2022-12-28T21:55:31.761Z,99.90
2022-12-28T21:57:59.886Z,99.90
2022-12-28T22:00:45.996Z,99.90
2022-12-28T22:03:31.665Z,99.90
2022-12-28T22:06:06.455Z,99.90
2022-12-28T22:08:52.657Z,99.90
2022-12-28T22:11:38.837Z,99.90
2022-12-28T22:14:06.381Z,99.90
2022-12-28T22:16:34.273Z,99.90
2022-12-28T22:19:03.418Z,99.90
2022-12-28T22:21:31.434Z,99.90
2022-12-28T22:23:58.727Z,99.90
2022-12-28T22:26:26.052Z,99.90
2022-12-28T22:28:55.671Z,99.90
2022-12-28T22:31:22.979Z,99.90
2022-12-28T22:33:50.613Z,99.90
2022-12-28T22:36:18.861Z,99.90
2022-12-28T22:38:46.568Z,99.90
2022-12-28T22:41:13.830Z,99.90
2022-12-28T22:43:41.207Z,99.90
2022-12-28T22:46:09.890Z,99.90
2022-12-28T22:48:37.390Z,99.90
2022-12-28T22:51:09.077Z,99.90
2022-12-28T22:53:36.783Z,99.90
2022-12-28T22:56:05.271Z,99.90
2022-12-28T22:58:32.533Z,99.90
2022-12-28T23:01:04.311Z,99.90
2022-12-28T23:03:31.665Z,99.90
2022-12-28T23:05:58.950Z,99.90
2022-12-28T23:08:26.224Z,99.90
2022-12-28T23:10:57.833Z,99.90
2022-12-28T23:13:26.763Z,99.90
2022-12-28T23:15:57.693Z,99.90
2022-12-28T23:18:43.656Z,99.90
2022-12-28T23:21:33.714Z,99.90
2022-12-28T23:24:19.566Z,99.90
2022-12-28T23:27:05.393Z,99.90
2022-12-28T23:29:32.695Z,99.90
2022-12-28T23:32:00.133Z,99.90
2022-12-28T23:34:27.371Z,99.90
2022-12-28T23:36:54.594Z,99.90
2022-12-28T23:39:23.510Z,99.90
2022-12-28T23:41:51.019Z,99.90
2022-12-28T23:44:19.339Z,99.90
2022-12-28T23:46:47.125Z,99.90
2022-12-28T23:49:15.314Z,99.90
2022-12-28T23:51:43.166Z,99.90
2022-12-28T23:54:11.248Z,99.90
2022-12-28T23:56:38.451Z,99.90
2022-12-28T23:59:05.911Z,99.90
